sensor_id;sensor_type;location;lat;lon;timestamp;P1;durP1;ratioP1;P2;durP2;ratioP2
64210;SDS011;72187;48.514;14.394;2023-08-17T00:00:07;15.50;;;5.10;;
64210;SDS011;72187;48.514;14.394;2023-08-17T00:01:06;5.80;;;5.20;;
64210;SDS011;72187;48.514;14.394;2023-08-17T00:01:40;5.70;;;5.20;;
64210;SDS011;72187;48.514;14.394;2023-08-17T00:02:14;5.60;;;5.10;;
64210;SDS011;72187;48.514;14.394;2023-08-17T00:02:47;6.20;;;5.60;;
64210;SDS011;72187;48.514;14.394;2023-08-17T00:03:21;13.20;;;5.90;;
64210;SDS011;72187;48.514;14.394;2023-08-17T00:03:54;8.40;;;6.00;;
64210;SDS011;72187;48.514;14.394;2023-08-17T00:04:27;6.20;;;5.70;;
64210;SDS011;72187;48.514;14.394;2023-08-17T00:05:01;13.10;;;5.90;;
64210;SDS011;72187;48.514;14.394;2023-08-17T00:05:34;6.40;;;5.80;;
64210;SDS011;72187;48.514;14.394;2023-08-17T00:06:08;16.80;;;6.30;;
64210;SDS011;72187;48.514;14.394;2023-08-17T00:06:41;9.20;;;6.40;;
64210;SDS011;72187;48.514;14.394;2023-08-17T00:07:15;6.70;;;6.10;;
64210;SDS011;72187;48.514;14.394;2023-08-17T00:07:48;17.10;;;6.60;;
64210;SDS011;72187;48.514;14.394;2023-08-17T00:08:22;7.00;;;6.40;;
64210;SDS011;72187;48.514;14.394;2023-08-17T00:08:55;15.70;;;6.60;;
64210;SDS011;72187;48.514;14.394;2023-08-17T00:09:29;8.90;;;6.90;;
64210;SDS011;72187;48.514;14.394;2023-08-17T00:10:02;15.80;;;6.90;;
64210;SDS011;72187;48.514;14.394;2023-08-17T00:10:36;8.00;;;7.20;;
64210;SDS011;72187;48.514;14.394;2023-08-17T00:11:11;9.80;;;7.00;;
64210;SDS011;72187;48.514;14.394;2023-08-17T00:11:47;15.20;;;7.40;;
64210;SDS011;72187;48.514;14.394;2023-08-17T00:12:26;56.60;;;7.40;;
64210;SDS011;72187;48.514;14.394;2023-08-17T00:13:03;82.70;;;8.30;;
64210;SDS011;72187;48.514;14.394;2023-08-17T00:13:37;8.30;;;7.40;;
64210;SDS011;72187;48.514;14.394;2023-08-17T00:14:10;10.00;;;7.80;;
64210;SDS011;72187;48.514;14.394;2023-08-17T00:14:43;9.00;;;7.60;;
64210;SDS011;72187;48.514;14.394;2023-08-17T00:15:17;62.60;;;8.20;;
64210;SDS011;72187;48.514;14.394;2023-08-17T00:15:50;14.90;;;7.20;;
64210;SDS011;72187;48.514;14.394;2023-08-17T00:16:24;25.70;;;7.20;;
64210;SDS011;72187;48.514;14.394;2023-08-17T00:16:58;20.90;;;7.80;;
64210;SDS011;72187;48.514;14.394;2023-08-17T00:17:31;78.70;;;7.70;;
64210;SDS011;72187;48.514;14.394;2023-08-17T00:18:04;41.70;;;6.80;;
64210;SDS011;72187;48.514;14.394;2023-08-17T00:18:38;11.40;;;6.80;;
64210;SDS011;72187;48.514;14.394;2023-08-17T00:19:11;11.70;;;7.20;;
64210;SDS011;72187;48.514;14.394;2023-08-17T00:19:45;25.30;;;6.90;;
64210;SDS011;72187;48.514;14.394;2023-08-17T00:20:19;25.90;;;6.70;;
64210;SDS011;72187;48.514;14.394;2023-08-17T00:20:53;13.60;;;6.90;;
64210;SDS011;72187;48.514;14.394;2023-08-17T00:21:26;14.10;;;6.70;;
64210;SDS011;72187;48.514;14.394;2023-08-17T00:21:59;19.10;;;6.80;;
64210;SDS011;72187;48.514;14.394;2023-08-17T00:22:33;26.80;;;6.70;;
64210;SDS011;72187;48.514;14.394;2023-08-17T00:23:06;7.10;;;6.40;;
64210;SDS011;72187;48.514;14.394;2023-08-17T00:23:40;26.60;;;6.40;;
64210;SDS011;72187;48.514;14.394;2023-08-17T00:24:14;28.30;;;6.50;;
64210;SDS011;72187;48.514;14.394;2023-08-17T00:24:47;13.00;;;6.10;;
64210;SDS011;72187;48.514;14.394;2023-08-17T00:25:20;13.10;;;6.30;;
64210;SDS011;72187;48.514;14.394;2023-08-17T00:25:54;7.50;;;6.00;;
64210;SDS011;72187;48.514;14.394;2023-08-17T00:26:27;23.50;;;6.10;;
64210;SDS011;72187;48.514;14.394;2023-08-17T00:27:01;9.50;;;6.10;;
64210;SDS011;72187;48.514;14.394;2023-08-17T00:27:35;17.50;;;5.70;;
64210;SDS011;72187;48.514;14.394;2023-08-17T00:28:09;9.50;;;5.60;;
64210;SDS011;72187;48.514;14.394;2023-08-17T00:28:43;23.90;;;5.60;;
64210;SDS011;72187;48.514;14.394;2023-08-17T00:29:17;15.70;;;5.80;;
64210;SDS011;72187;48.514;14.394;2023-08-17T00:29:50;9.00;;;6.10;;
64210;SDS011;72187;48.514;14.394;2023-08-17T00:30:23;5.60;;;5.10;;
64210;SDS011;72187;48.514;14.394;2023-08-17T00:30:57;10.70;;;5.70;;
64210;SDS011;72187;48.514;14.394;2023-08-17T00:31:30;6.70;;;5.30;;
64210;SDS011;72187;48.514;14.394;2023-08-17T00:32:04;6.20;;;5.30;;
64210;SDS011;72187;48.514;14.394;2023-08-17T00:32:41;6.60;;;5.50;;
64210;SDS011;72187;48.514;14.394;2023-08-17T00:33:14;10.70;;;5.30;;
64210;SDS011;72187;48.514;14.394;2023-08-17T00:33:48;13.80;;;5.40;;
64210;SDS011;72187;48.514;14.394;2023-08-17T00:34:21;7.10;;;5.20;;
64210;SDS011;72187;48.514;14.394;2023-08-17T00:34:55;8.70;;;5.30;;
64210;SDS011;72187;48.514;14.394;2023-08-17T00:35:28;5.80;;;5.20;;
64210;SDS011;72187;48.514;14.394;2023-08-17T00:36:02;10.70;;;5.00;;
64210;SDS011;72187;48.514;14.394;2023-08-17T00:36:35;5.90;;;5.30;;
64210;SDS011;72187;48.514;14.394;2023-08-17T00:37:09;6.80;;;4.90;;
64210;SDS011;72187;48.514;14.394;2023-08-17T00:37:42;9.30;;;5.20;;
64210;SDS011;72187;48.514;14.394;2023-08-17T00:38:16;6.70;;;4.90;;
64210;SDS011;72187;48.514;14.394;2023-08-17T00:38:50;5.20;;;4.70;;
64210;SDS011;72187;48.514;14.394;2023-08-17T00:39:23;5.60;;;5.00;;
64210;SDS011;72187;48.514;14.394;2023-08-17T00:39:57;6.10;;;4.70;;
64210;SDS011;72187;48.514;14.394;2023-08-17T00:40:30;5.10;;;4.60;;
64210;SDS011;72187;48.514;14.394;2023-08-17T00:41:03;5.50;;;5.00;;
64210;SDS011;72187;48.514;14.394;2023-08-17T00:41:37;5.80;;;5.00;;
64210;SDS011;72187;48.514;14.394;2023-08-17T00:42:10;4.90;;;4.50;;
64210;SDS011;72187;48.514;14.394;2023-08-17T00:42:43;5.30;;;4.80;;
64210;SDS011;72187;48.514;14.394;2023-08-17T00:43:17;5.50;;;4.60;;
64210;SDS011;72187;48.514;14.394;2023-08-17T00:43:50;8.90;;;5.00;;
64210;SDS011;72187;48.514;14.394;2023-08-17T00:44:26;12.50;;;4.80;;
64210;SDS011;72187;48.514;14.394;2023-08-17T00:45:00;6.30;;;5.20;;
64210;SDS011;72187;48.514;14.394;2023-08-17T00:45:33;7.30;;;5.40;;
64210;SDS011;72187;48.514;14.394;2023-08-17T00:46:08;25.50;;;5.70;;
64210;SDS011;72187;48.514;14.394;2023-08-17T00:46:42;9.40;;;5.40;;
64210;SDS011;72187;48.514;14.394;2023-08-17T00:47:18;5.70;;;5.20;;
64210;SDS011;72187;48.514;14.394;2023-08-17T00:47:56;14.00;;;5.40;;
64210;SDS011;72187;48.514;14.394;2023-08-17T00:48:31;16.10;;;5.70;;
64210;SDS011;72187;48.514;14.394;2023-08-17T00:49:08;27.90;;;6.50;;
64210;SDS011;72187;48.514;14.394;2023-08-17T00:49:43;7.70;;;5.70;;
64210;SDS011;72187;48.514;14.394;2023-08-17T00:50:17;16.70;;;6.10;;
64210;SDS011;72187;48.514;14.394;2023-08-17T00:50:50;18.50;;;5.70;;
64210;SDS011;72187;48.514;14.394;2023-08-17T00:51:26;6.70;;;6.00;;
64210;SDS011;72187;48.514;14.394;2023-08-17T00:52:01;27.80;;;6.30;;
64210;SDS011;72187;48.514;14.394;2023-08-17T00:52:36;7.40;;;6.40;;
64210;SDS011;72187;48.514;14.394;2023-08-17T00:53:10;6.80;;;6.20;;
64210;SDS011;72187;48.514;14.394;2023-08-17T00:53:46;7.60;;;6.30;;
64210;SDS011;72187;48.514;14.394;2023-08-17T00:54:24;11.20;;;6.30;;
64210;SDS011;72187;48.514;14.394;2023-08-17T00:54:58;7.10;;;6.00;;
64210;SDS011;72187;48.514;14.394;2023-08-17T00:55:35;40.80;;;6.20;;
64210;SDS011;72187;48.514;14.394;2023-08-17T00:56:09;48.80;;;6.30;;
64210;SDS011;72187;48.514;14.394;2023-08-17T00:56:43;46.80;;;6.60;;
64210;SDS011;72187;48.514;14.394;2023-08-17T00:57:16;10.30;;;6.20;;
64210;SDS011;72187;48.514;14.394;2023-08-17T00:57:50;6.40;;;5.80;;
64210;SDS011;72187;48.514;14.394;2023-08-17T00:58:25;6.70;;;6.00;;
64210;SDS011;72187;48.514;14.394;2023-08-17T00:58:59;69.80;;;6.60;;
64210;SDS011;72187;48.514;14.394;2023-08-17T00:59:33;6.50;;;5.90;;
64210;SDS011;72187;48.514;14.394;2023-08-17T01:00:10;6.60;;;6.00;;
64210;SDS011;72187;48.514;14.394;2023-08-17T01:00:49;7.50;;;6.30;;
64210;SDS011;72187;48.514;14.394;2023-08-17T01:01:23;7.00;;;6.40;;
64210;SDS011;72187;48.514;14.394;2023-08-17T01:01:57;6.60;;;6.00;;
64210;SDS011;72187;48.514;14.394;2023-08-17T01:02:30;6.70;;;6.00;;
64210;SDS011;72187;48.514;14.394;2023-08-17T01:03:04;6.80;;;6.10;;
64210;SDS011;72187;48.514;14.394;2023-08-17T01:03:39;6.90;;;6.30;;
64210;SDS011;72187;48.514;14.394;2023-08-17T01:04:16;6.50;;;5.90;;
64210;SDS011;72187;48.514;14.394;2023-08-17T01:04:51;6.60;;;6.00;;
64210;SDS011;72187;48.514;14.394;2023-08-17T01:05:25;7.50;;;6.10;;
64210;SDS011;72187;48.514;14.394;2023-08-17T01:06:01;6.50;;;5.90;;
64210;SDS011;72187;48.514;14.394;2023-08-17T01:06:35;6.40;;;5.80;;
64210;SDS011;72187;48.514;14.394;2023-08-17T01:07:10;10.40;;;5.60;;
64210;SDS011;72187;48.514;14.394;2023-08-17T01:07:44;6.30;;;5.80;;
64210;SDS011;72187;48.514;14.394;2023-08-17T01:08:17;6.40;;;5.80;;
64210;SDS011;72187;48.514;14.394;2023-08-17T01:08:51;6.20;;;5.70;;
64210;SDS011;72187;48.514;14.394;2023-08-17T01:09:24;6.70;;;6.10;;
64210;SDS011;72187;48.514;14.394;2023-08-17T01:09:58;20.60;;;6.00;;
64210;SDS011;72187;48.514;14.394;2023-08-17T01:10:41;7.10;;;6.40;;
64210;SDS011;72187;48.514;14.394;2023-08-17T01:12:00;7.20;;;6.50;;
64210;SDS011;72187;48.514;14.394;2023-08-17T01:12:48;6.80;;;6.20;;
64210;SDS011;72187;48.514;14.394;2023-08-17T01:13:32;6.70;;;6.10;;
64210;SDS011;72187;48.514;14.394;2023-08-17T01:14:56;7.00;;;6.30;;
64210;SDS011;72187;48.514;14.394;2023-08-17T01:15:38;14.20;;;6.40;;
64210;SDS011;72187;48.514;14.394;2023-08-17T01:16:24;33.50;;;6.60;;
64210;SDS011;72187;48.514;14.394;2023-08-17T01:17:06;7.40;;;6.80;;
64210;SDS011;72187;48.514;14.394;2023-08-17T01:17:56;50.80;;;7.30;;
64210;SDS011;72187;48.514;14.394;2023-08-17T01:18:34;76.50;;;8.40;;
64210;SDS011;72187;48.514;14.394;2023-08-17T01:19:09;63.70;;;8.60;;
64210;SDS011;72187;48.514;14.394;2023-08-17T01:19:53;43.10;;;8.40;;
64210;SDS011;72187;48.514;14.394;2023-08-17T01:20:27;18.80;;;8.00;;
64210;SDS011;72187;48.514;14.394;2023-08-17T01:21:02;32.00;;;8.00;;
64210;SDS011;72187;48.514;14.394;2023-08-17T01:21:42;15.60;;;7.70;;
64210;SDS011;72187;48.514;14.394;2023-08-17T01:22:22;55.50;;;8.20;;
64210;SDS011;72187;48.514;14.394;2023-08-17T01:22:56;16.00;;;7.10;;
64210;SDS011;72187;48.514;14.394;2023-08-17T01:23:38;9.70;;;6.70;;
64210;SDS011;72187;48.514;14.394;2023-08-17T01:24:12;30.20;;;7.20;;
64210;SDS011;72187;48.514;14.394;2023-08-17T01:24:45;30.40;;;7.40;;
64210;SDS011;72187;48.514;14.394;2023-08-17T01:25:20;14.10;;;7.30;;
64210;SDS011;72187;48.514;14.394;2023-08-17T01:25:57;12.40;;;7.10;;
64210;SDS011;72187;48.514;14.394;2023-08-17T01:26:30;50.30;;;7.20;;
64210;SDS011;72187;48.514;14.394;2023-08-17T01:27:03;23.50;;;6.50;;
64210;SDS011;72187;48.514;14.394;2023-08-17T01:27:42;6.90;;;6.30;;
64210;SDS011;72187;48.514;14.394;2023-08-17T01:28:17;7.10;;;6.40;;
64210;SDS011;72187;48.514;14.394;2023-08-17T01:28:51;7.70;;;6.90;;
64210;SDS011;72187;48.514;14.394;2023-08-17T01:29:24;11.70;;;6.30;;
64210;SDS011;72187;48.514;14.394;2023-08-17T01:29:58;10.20;;;6.10;;
64210;SDS011;72187;48.514;14.394;2023-08-17T01:30:39;11.30;;;6.20;;
64210;SDS011;72187;48.514;14.394;2023-08-17T01:31:30;6.40;;;5.80;;
64210;SDS011;72187;48.514;14.394;2023-08-17T01:33:10;16.00;;;6.00;;
64210;SDS011;72187;48.514;14.394;2023-08-17T01:33:48;30.80;;;6.50;;
64210;SDS011;72187;48.514;14.394;2023-08-17T01:34:25;18.70;;;6.10;;
64210;SDS011;72187;48.514;14.394;2023-08-17T01:35:11;9.60;;;6.10;;
64210;SDS011;72187;48.514;14.394;2023-08-17T01:35:54;6.60;;;6.00;;
64210;SDS011;72187;48.514;14.394;2023-08-17T01:36:37;7.00;;;6.20;;
64210;SDS011;72187;48.514;14.394;2023-08-17T01:37:18;6.30;;;5.80;;
64210;SDS011;72187;48.514;14.394;2023-08-17T01:37:54;6.60;;;6.00;;
64210;SDS011;72187;48.514;14.394;2023-08-17T01:38:32;7.10;;;6.50;;
64210;SDS011;72187;48.514;14.394;2023-08-17T01:39:07;6.40;;;5.80;;
64210;SDS011;72187;48.514;14.394;2023-08-17T01:39:42;6.90;;;6.20;;
64210;SDS011;72187;48.514;14.394;2023-08-17T01:40:18;6.90;;;6.10;;
64210;SDS011;72187;48.514;14.394;2023-08-17T01:40:52;6.70;;;6.10;;
64210;SDS011;72187;48.514;14.394;2023-08-17T01:41:26;16.40;;;5.80;;
64210;SDS011;72187;48.514;14.394;2023-08-17T01:42:01;7.90;;;5.90;;
64210;SDS011;72187;48.514;14.394;2023-08-17T01:42:37;6.90;;;6.20;;
64210;SDS011;72187;48.514;14.394;2023-08-17T01:43:12;9.30;;;5.90;;
64210;SDS011;72187;48.514;14.394;2023-08-17T01:43:49;9.40;;;6.10;;
64210;SDS011;72187;48.514;14.394;2023-08-17T01:44:24;6.20;;;5.70;;
64210;SDS011;72187;48.514;14.394;2023-08-17T01:44:59;14.40;;;6.20;;
64210;SDS011;72187;48.514;14.394;2023-08-17T01:45:32;7.10;;;5.70;;
64210;SDS011;72187;48.514;14.394;2023-08-17T01:46:07;8.00;;;5.60;;
64210;SDS011;72187;48.514;14.394;2023-08-17T01:46:40;57.20;;;5.70;;
64210;SDS011;72187;48.514;14.394;2023-08-17T01:47:15;24.20;;;5.70;;
64210;SDS011;72187;48.514;14.394;2023-08-17T01:47:48;8.60;;;5.70;;
64210;SDS011;72187;48.514;14.394;2023-08-17T01:48:22;13.80;;;5.80;;
64210;SDS011;72187;48.514;14.394;2023-08-17T01:48:55;15.30;;;5.70;;
64210;SDS011;72187;48.514;14.394;2023-08-17T01:51:20;6.60;;;6.00;;
64210;SDS011;72187;48.514;14.394;2023-08-17T01:51:53;24.60;;;6.60;;
64210;SDS011;72187;48.514;14.394;2023-08-17T01:52:27;7.80;;;6.30;;
64210;SDS011;72187;48.514;14.394;2023-08-17T01:53:01;7.00;;;6.10;;
64210;SDS011;72187;48.514;14.394;2023-08-17T01:53:35;6.90;;;6.30;;
64210;SDS011;72187;48.514;14.394;2023-08-17T01:54:08;6.50;;;5.90;;
64210;SDS011;72187;48.514;14.394;2023-08-17T01:54:42;42.80;;;6.50;;
64210;SDS011;72187;48.514;14.394;2023-08-17T01:55:16;47.60;;;6.40;;
64210;SDS011;72187;48.514;14.394;2023-08-17T01:55:50;24.20;;;6.70;;
64210;SDS011;72187;48.514;14.394;2023-08-17T01:56:26;43.00;;;6.80;;
64210;SDS011;72187;48.514;14.394;2023-08-17T01:57:00;7.50;;;6.00;;
64210;SDS011;72187;48.514;14.394;2023-08-17T01:57:33;8.80;;;6.10;;
64210;SDS011;72187;48.514;14.394;2023-08-17T01:58:08;69.30;;;7.10;;
64210;SDS011;72187;48.514;14.394;2023-08-17T01:58:42;7.10;;;6.40;;
64210;SDS011;72187;48.514;14.394;2023-08-17T01:59:16;62.10;;;7.00;;
64210;SDS011;72187;48.514;14.394;2023-08-17T01:59:49;20.70;;;6.40;;
64210;SDS011;72187;48.514;14.394;2023-08-17T02:00:23;33.50;;;6.60;;
64210;SDS011;72187;48.514;14.394;2023-08-17T02:00:56;7.70;;;6.60;;
64210;SDS011;72187;48.514;14.394;2023-08-17T02:01:30;7.50;;;6.80;;
64210;SDS011;72187;48.514;14.394;2023-08-17T02:02:04;25.40;;;7.20;;
64210;SDS011;72187;48.514;14.394;2023-08-17T02:02:37;10.80;;;7.40;;
64210;SDS011;72187;48.514;14.394;2023-08-17T02:03:11;12.20;;;7.50;;
64210;SDS011;72187;48.514;14.394;2023-08-17T02:03:44;29.60;;;8.30;;
64210;SDS011;72187;48.514;14.394;2023-08-17T02:04:18;16.30;;;7.80;;
64210;SDS011;72187;48.514;14.394;2023-08-17T02:04:52;9.10;;;7.20;;
64210;SDS011;72187;48.514;14.394;2023-08-17T02:05:25;8.30;;;7.50;;
64210;SDS011;72187;48.514;14.394;2023-08-17T02:06:01;14.40;;;7.20;;
64210;SDS011;72187;48.514;14.394;2023-08-17T02:06:35;7.90;;;7.30;;
64210;SDS011;72187;48.514;14.394;2023-08-17T02:07:08;8.10;;;7.40;;
64210;SDS011;72187;48.514;14.394;2023-08-17T02:07:42;8.20;;;7.50;;
64210;SDS011;72187;48.514;14.394;2023-08-17T02:08:15;8.00;;;7.10;;
64210;SDS011;72187;48.514;14.394;2023-08-17T02:08:48;45.20;;;7.60;;
64210;SDS011;72187;48.514;14.394;2023-08-17T02:09:23;7.80;;;7.10;;
64210;SDS011;72187;48.514;14.394;2023-08-17T02:09:58;7.70;;;6.90;;
64210;SDS011;72187;48.514;14.394;2023-08-17T02:10:32;8.10;;;6.90;;
64210;SDS011;72187;48.514;14.394;2023-08-17T02:11:05;11.20;;;6.70;;
64210;SDS011;72187;48.514;14.394;2023-08-17T02:11:39;7.90;;;7.20;;
64210;SDS011;72187;48.514;14.394;2023-08-17T02:12:13;7.70;;;6.80;;
64210;SDS011;72187;48.514;14.394;2023-08-17T02:12:46;7.30;;;6.70;;
64210;SDS011;72187;48.514;14.394;2023-08-17T02:13:20;8.80;;;6.60;;
64210;SDS011;72187;48.514;14.394;2023-08-17T02:13:57;7.30;;;6.70;;
64210;SDS011;72187;48.514;14.394;2023-08-17T02:14:33;11.80;;;6.50;;
64210;SDS011;72187;48.514;14.394;2023-08-17T02:15:07;7.10;;;6.50;;
64210;SDS011;72187;48.514;14.394;2023-08-17T02:15:41;24.00;;;6.60;;
64210;SDS011;72187;48.514;14.394;2023-08-17T02:16:14;7.10;;;6.50;;
64210;SDS011;72187;48.514;14.394;2023-08-17T02:16:48;7.40;;;6.40;;
64210;SDS011;72187;48.514;14.394;2023-08-17T02:17:22;10.10;;;6.40;;
64210;SDS011;72187;48.514;14.394;2023-08-17T02:18:00;6.80;;;6.20;;
64210;SDS011;72187;48.514;14.394;2023-08-17T02:18:34;7.00;;;6.40;;
64210;SDS011;72187;48.514;14.394;2023-08-17T02:19:08;6.50;;;6.00;;
64210;SDS011;72187;48.514;14.394;2023-08-17T02:19:41;11.40;;;6.70;;
64210;SDS011;72187;48.514;14.394;2023-08-17T02:20:16;6.50;;;6.00;;
64210;SDS011;72187;48.514;14.394;2023-08-17T02:20:50;6.60;;;6.10;;
64210;SDS011;72187;48.514;14.394;2023-08-17T02:21:23;61.90;;;7.10;;
64210;SDS011;72187;48.514;14.394;2023-08-17T02:21:57;6.60;;;6.00;;
64210;SDS011;72187;48.514;14.394;2023-08-17T02:22:30;6.80;;;6.10;;
64210;SDS011;72187;48.514;14.394;2023-08-17T02:23:03;13.00;;;6.30;;
64210;SDS011;72187;48.514;14.394;2023-08-17T02:23:37;23.70;;;6.30;;
64210;SDS011;72187;48.514;14.394;2023-08-17T02:24:10;7.10;;;6.40;;
64210;SDS011;72187;48.514;14.394;2023-08-17T02:24:43;6.90;;;6.30;;
64210;SDS011;72187;48.514;14.394;2023-08-17T02:25:17;12.10;;;6.30;;
64210;SDS011;72187;48.514;14.394;2023-08-17T02:25:50;61.10;;;6.90;;
64210;SDS011;72187;48.514;14.394;2023-08-17T02:26:25;11.30;;;6.30;;
64210;SDS011;72187;48.514;14.394;2023-08-17T02:26:59;21.60;;;6.50;;
64210;SDS011;72187;48.514;14.394;2023-08-17T02:27:32;6.50;;;6.00;;
64210;SDS011;72187;48.514;14.394;2023-08-17T02:28:06;6.20;;;5.70;;
64210;SDS011;72187;48.514;14.394;2023-08-17T02:28:39;6.40;;;5.90;;
64210;SDS011;72187;48.514;14.394;2023-08-17T02:29:12;16.30;;;5.80;;
64210;SDS011;72187;48.514;14.394;2023-08-17T02:29:46;8.70;;;5.30;;
64210;SDS011;72187;48.514;14.394;2023-08-17T02:30:19;17.20;;;5.50;;
64210;SDS011;72187;48.514;14.394;2023-08-17T02:30:56;27.20;;;5.60;;
64210;SDS011;72187;48.514;14.394;2023-08-17T02:31:32;16.50;;;5.30;;
64210;SDS011;72187;48.514;14.394;2023-08-17T02:32:06;63.30;;;6.00;;
64210;SDS011;72187;48.514;14.394;2023-08-17T02:32:39;61.90;;;6.00;;
64210;SDS011;72187;48.514;14.394;2023-08-17T02:33:12;44.00;;;6.30;;
64210;SDS011;72187;48.514;14.394;2023-08-17T02:33:46;47.40;;;6.40;;
64210;SDS011;72187;48.514;14.394;2023-08-17T02:34:20;60.60;;;6.90;;
64210;SDS011;72187;48.514;14.394;2023-08-17T02:34:53;24.80;;;6.10;;
64210;SDS011;72187;48.514;14.394;2023-08-17T02:35:26;14.20;;;5.90;;
64210;SDS011;72187;48.514;14.394;2023-08-17T02:36:00;32.10;;;6.20;;
64210;SDS011;72187;48.514;14.394;2023-08-17T02:36:35;11.70;;;6.50;;
64210;SDS011;72187;48.514;14.394;2023-08-17T02:37:08;15.00;;;6.00;;
64210;SDS011;72187;48.514;14.394;2023-08-17T02:37:41;6.40;;;5.90;;
64210;SDS011;72187;48.514;14.394;2023-08-17T02:38:15;6.50;;;5.90;;
64210;SDS011;72187;48.514;14.394;2023-08-17T02:38:49;10.10;;;6.00;;
64210;SDS011;72187;48.514;14.394;2023-08-17T02:39:23;6.40;;;5.90;;
64210;SDS011;72187;48.514;14.394;2023-08-17T02:39:56;6.00;;;5.50;;
64210;SDS011;72187;48.514;14.394;2023-08-17T02:40:30;6.30;;;5.70;;
64210;SDS011;72187;48.514;14.394;2023-08-17T02:41:04;5.60;;;5.10;;
64210;SDS011;72187;48.514;14.394;2023-08-17T02:41:37;5.90;;;5.40;;
64210;SDS011;72187;48.514;14.394;2023-08-17T02:42:10;5.60;;;5.10;;
64210;SDS011;72187;48.514;14.394;2023-08-17T02:42:44;5.90;;;5.40;;
64210;SDS011;72187;48.514;14.394;2023-08-17T02:43:17;6.40;;;5.80;;
64210;SDS011;72187;48.514;14.394;2023-08-17T02:43:51;14.50;;;5.70;;
64210;SDS011;72187;48.514;14.394;2023-08-17T02:44:25;11.10;;;5.50;;
64210;SDS011;72187;48.514;14.394;2023-08-17T02:45:00;15.50;;;5.60;;
64210;SDS011;72187;48.514;14.394;2023-08-17T02:45:34;25.90;;;5.10;;
64210;SDS011;72187;48.514;14.394;2023-08-17T02:46:08;20.50;;;4.70;;
64210;SDS011;72187;48.514;14.394;2023-08-17T02:46:42;13.70;;;4.60;;
64210;SDS011;72187;48.514;14.394;2023-08-17T02:47:16;21.20;;;4.80;;
64210;SDS011;72187;48.514;14.394;2023-08-17T02:47:49;6.40;;;5.00;;
64210;SDS011;72187;48.514;14.394;2023-08-17T02:48:23;9.20;;;4.80;;
64210;SDS011;72187;48.514;14.394;2023-08-17T02:48:56;7.20;;;4.70;;
64210;SDS011;72187;48.514;14.394;2023-08-17T02:49:30;8.60;;;4.70;;
64210;SDS011;72187;48.514;14.394;2023-08-17T02:50:03;15.40;;;5.00;;
64210;SDS011;72187;48.514;14.394;2023-08-17T02:50:38;12.30;;;4.90;;
64210;SDS011;72187;48.514;14.394;2023-08-17T02:51:13;6.80;;;4.90;;
64210;SDS011;72187;48.514;14.394;2023-08-17T02:51:47;9.20;;;5.20;;
64210;SDS011;72187;48.514;14.394;2023-08-17T02:52:20;5.90;;;5.30;;
64210;SDS011;72187;48.514;14.394;2023-08-17T02:52:54;5.60;;;5.00;;
64210;SDS011;72187;48.514;14.394;2023-08-17T02:53:27;26.80;;;5.80;;
64210;SDS011;72187;48.514;14.394;2023-08-17T02:54:01;17.10;;;5.40;;
64210;SDS011;72187;48.514;14.394;2023-08-17T02:54:35;8.80;;;5.60;;
64210;SDS011;72187;48.514;14.394;2023-08-17T02:55:09;15.10;;;5.80;;
64210;SDS011;72187;48.514;14.394;2023-08-17T02:55:42;13.70;;;5.70;;
64210;SDS011;72187;48.514;14.394;2023-08-17T02:56:15;13.70;;;6.20;;
64210;SDS011;72187;48.514;14.394;2023-08-17T02:56:49;41.50;;;6.00;;
64210;SDS011;72187;48.514;14.394;2023-08-17T02:57:22;26.70;;;6.10;;
64210;SDS011;72187;48.514;14.394;2023-08-17T02:57:57;62.60;;;7.40;;
64210;SDS011;72187;48.514;14.394;2023-08-17T02:58:31;22.70;;;6.50;;
64210;SDS011;72187;48.514;14.394;2023-08-17T02:59:04;23.20;;;6.10;;
64210;SDS011;72187;48.514;14.394;2023-08-17T02:59:37;12.40;;;6.40;;
64210;SDS011;72187;48.514;14.394;2023-08-17T03:00:11;35.90;;;7.00;;
64210;SDS011;72187;48.514;14.394;2023-08-17T03:00:45;27.80;;;6.20;;
64210;SDS011;72187;48.514;14.394;2023-08-17T03:01:19;41.40;;;6.80;;
64210;SDS011;72187;48.514;14.394;2023-08-17T03:01:54;22.80;;;7.10;;
64210;SDS011;72187;48.514;14.394;2023-08-17T03:02:29;24.10;;;6.90;;
64210;SDS011;72187;48.514;14.394;2023-08-17T03:03:02;23.80;;;6.80;;
64210;SDS011;72187;48.514;14.394;2023-08-17T03:03:36;14.40;;;6.50;;
64210;SDS011;72187;48.514;14.394;2023-08-17T03:04:10;23.90;;;6.50;;
64210;SDS011;72187;48.514;14.394;2023-08-17T03:04:43;13.60;;;6.40;;
64210;SDS011;72187;48.514;14.394;2023-08-17T03:05:16;6.60;;;6.00;;
64210;SDS011;72187;48.514;14.394;2023-08-17T03:05:50;16.50;;;6.70;;
64210;SDS011;72187;48.514;14.394;2023-08-17T03:06:24;16.00;;;6.90;;
64210;SDS011;72187;48.514;14.394;2023-08-17T03:06:57;9.20;;;6.40;;
64210;SDS011;72187;48.514;14.394;2023-08-17T03:07:31;16.80;;;6.30;;
64210;SDS011;72187;48.514;14.394;2023-08-17T03:08:04;14.00;;;6.30;;
64210;SDS011;72187;48.514;14.394;2023-08-17T03:08:38;9.70;;;6.50;;
64210;SDS011;72187;48.514;14.394;2023-08-17T03:09:11;10.30;;;6.60;;
64210;SDS011;72187;48.514;14.394;2023-08-17T03:09:45;36.70;;;6.70;;
64210;SDS011;72187;48.514;14.394;2023-08-17T03:10:19;18.60;;;6.60;;
64210;SDS011;72187;48.514;14.394;2023-08-17T03:10:52;10.90;;;6.60;;
64210;SDS011;72187;48.514;14.394;2023-08-17T03:11:26;7.60;;;6.20;;
64210;SDS011;72187;48.514;14.394;2023-08-17T03:11:59;12.30;;;6.20;;
64210;SDS011;72187;48.514;14.394;2023-08-17T03:12:33;18.60;;;6.70;;
64210;SDS011;72187;48.514;14.394;2023-08-17T03:13:06;8.30;;;6.60;;
64210;SDS011;72187;48.514;14.394;2023-08-17T03:13:40;18.50;;;7.00;;
64210;SDS011;72187;48.514;14.394;2023-08-17T03:14:13;13.70;;;6.90;;
64210;SDS011;72187;48.514;14.394;2023-08-17T03:14:48;12.90;;;7.00;;
64210;SDS011;72187;48.514;14.394;2023-08-17T03:15:21;10.50;;;7.10;;
64210;SDS011;72187;48.514;14.394;2023-08-17T03:15:55;18.70;;;6.90;;
64210;SDS011;72187;48.514;14.394;2023-08-17T03:16:29;7.90;;;7.00;;
64210;SDS011;72187;48.514;14.394;2023-08-17T03:17:05;19.60;;;7.00;;
64210;SDS011;72187;48.514;14.394;2023-08-17T03:17:38;16.80;;;7.50;;
64210;SDS011;72187;48.514;14.394;2023-08-17T03:18:12;10.40;;;7.70;;
64210;SDS011;72187;48.514;14.394;2023-08-17T03:18:45;8.20;;;7.40;;
64210;SDS011;72187;48.514;14.394;2023-08-17T03:19:18;16.50;;;6.90;;
64210;SDS011;72187;48.514;14.394;2023-08-17T03:19:52;7.10;;;6.40;;
64210;SDS011;72187;48.514;14.394;2023-08-17T03:20:26;8.30;;;6.80;;
64210;SDS011;72187;48.514;14.394;2023-08-17T03:20:59;8.30;;;7.40;;
64210;SDS011;72187;48.514;14.394;2023-08-17T03:21:33;8.20;;;7.40;;
64210;SDS011;72187;48.514;14.394;2023-08-17T03:22:07;8.30;;;7.60;;
64210;SDS011;72187;48.514;14.394;2023-08-17T03:22:40;8.70;;;7.80;;
64210;SDS011;72187;48.514;14.394;2023-08-17T03:23:13;8.10;;;7.30;;
64210;SDS011;72187;48.514;14.394;2023-08-17T03:23:47;7.90;;;7.20;;
64210;SDS011;72187;48.514;14.394;2023-08-17T03:24:22;7.70;;;7.10;;
64210;SDS011;72187;48.514;14.394;2023-08-17T03:24:56;8.00;;;7.20;;
64210;SDS011;72187;48.514;14.394;2023-08-17T03:25:30;9.20;;;7.30;;
64210;SDS011;72187;48.514;14.394;2023-08-17T03:26:03;7.90;;;7.10;;
64210;SDS011;72187;48.514;14.394;2023-08-17T03:26:37;7.70;;;6.90;;
64210;SDS011;72187;48.514;14.394;2023-08-17T03:27:12;7.60;;;6.90;;
64210;SDS011;72187;48.514;14.394;2023-08-17T03:27:46;7.60;;;6.90;;
64210;SDS011;72187;48.514;14.394;2023-08-17T03:28:20;7.70;;;7.00;;